Time,TemperatureF,DewpointF,PressureIn,WindDirection,WindDirectionDegrees,WindSpeedMPH,WindSpeedGustMPH,Humidity,HourlyPrecipIn,Conditions,Clouds,dailyrainin,SoftwareType,DateUTC
2014-09-21 00:00:00,59.1,56.5,30.07,ENE,63,0.0,0.0,91,0.00,,---,0.00,VWS V15.00,2014-09-21 04:00:00,
2014-09-21 00:07:00,59.2,56.6,30.06,ENE,61,0.0,0.0,91,0.00,,---,0.00,VWS V15.00,2014-09-21 04:07:00,
2014-09-21 00:22:00,59.3,56.7,30.06,ESE,103,0.0,0.0,91,0.00,,---,0.00,VWS V15.00,2014-09-21 04:22:00,
2014-09-21 00:30:00,59.4,57.1,30.06,ESE,117,0.0,0.0,92,0.00,,---,0.00,VWS V15.00,2014-09-21 04:30:00,
2014-09-21 00:37:00,59.3,56.7,30.06,ESE,116,0.0,0.0,91,0.00,,---,0.00,VWS V15.00,2014-09-21 04:37:00,
2014-09-21 00:52:00,59.3,56.7,30.06,SSW,200,0.0,0.0,91,0.00,,---,0.00,VWS V15.00,2014-09-21 04:52:00,
2014-09-21 01:00:00,59.2,56.6,30.06,South,182,0.0,0.0,91,0.00,,---,0.00,VWS V15.00,2014-09-21 05:00:00,
2014-09-21 01:07:00,59.1,56.2,30.06,SE,146,0.0,0.0,90,0.00,,---,0.00,VWS V15.00,2014-09-21 05:07:00,
2014-09-21 01:22:00,58.9,56.0,30.06,East,90,0.0,0.0,90,0.00,,---,0.00,VWS V15.00,2014-09-21 05:22:00,
2014-09-21 01:30:00,58.7,55.8,30.06,East,90,0.0,0.0,90,0.00,,---,0.00,VWS V15.00,2014-09-21 05:30:00,
2014-09-21 01:37:00,58.4,55.5,30.05,East,90,0.0,0.0,90,0.00,,---,0.00,VWS V15.00,2014-09-21 05:37:00,
2014-09-21 01:52:00,57.9,55.0,30.05,East,90,0.0,0.0,90,0.00,,---,0.00,VWS V15.00,2014-09-21 05:52:00,
2014-09-21 02:00:00,57.6,55.0,30.05,East,90,0.0,0.0,91,0.00,,---,0.00,VWS V15.00,2014-09-21 06:00:00,
2014-09-21 02:07:00,57.3,54.7,30.05,East,90,0.0,0.0,91,0.00,,---,0.00,VWS V15.00,2014-09-21 06:07:00,
2014-09-21 02:22:00,57.1,54.8,30.04,East,90,0.0,0.0,92,0.00,,---,0.00,VWS V15.00,2014-09-21 06:22:00,
2014-09-21 02:30:00,57.1,54.8,30.03,East,90,0.0,0.0,92,0.00,,---,0.00,VWS V15.00,2014-09-21 06:30:00,
2014-09-21 02:37:00,57.2,54.9,30.03,East,90,0.0,0.0,92,0.00,,---,0.00,VWS V15.00,2014-09-21 06:37:00,
2014-09-21 02:52:00,57.4,55.1,30.02,East,90,0.0,0.0,92,0.00,,---,0.00,VWS V15.00,2014-09-21 06:52:00,
2014-09-21 03:00:00,57.1,54.5,30.01,East,90,0.0,0.0,91,0.00,,---,0.00,VWS V15.00,2014-09-21 07:00:00,
2014-09-21 03:07:00,56.9,54.6,30.01,East,90,0.0,0.0,92,0.00,,---,0.00,VWS V15.00,2014-09-21 07:07:00,
2014-09-21 03:22:00,57.0,54.7,30.01,East,90,0.0,0.0,92,0.00,,---,0.00,VWS V15.00,2014-09-21 07:22:00,
2014-09-21 03:30:00,56.9,54.6,30.01,East,90,0.0,0.0,92,0.00,,---,0.00,VWS V15.00,2014-09-21 07:30:00,
2014-09-21 03:37:00,56.6,54.3,30.01,East,90,0.0,0.0,92,0.00,,---,0.00,VWS V15.00,2014-09-21 07:37:00,
2014-09-21 03:52:00,56.2,54.2,30.00,East,90,0.0,0.0,93,0.00,,---,0.00,VWS V15.00,2014-09-21 07:52:00,
2014-09-21 04:00:00,56.1,54.1,30.01,East,90,0.0,0.0,93,0.00,,---,0.00,VWS V15.00,2014-09-21 08:00:00,
2014-09-21 04:07:00,56.0,54.3,30.00,East,90,0.0,0.0,94,0.00,,---,0.00,VWS V15.00,2014-09-21 08:07:00,
2014-09-21 04:23:00,56.1,54.4,30.00,East,90,0.0,0.0,94,0.00,,---,0.00,VWS V15.00,2014-09-21 08:23:00,
2014-09-21 04:30:00,56.2,54.5,30.00,East,101,0.0,0.0,94,0.00,,---,0.00,VWS V15.00,2014-09-21 08:30:00,
2014-09-21 04:38:00,56.2,54.5,29.99,East,101,0.0,0.0,94,0.00,,---,0.00,VWS V15.00,2014-09-21 08:38:00,
2014-09-21 04:53:00,56.8,55.4,29.99,East,101,0.0,0.0,95,0.00,,---,0.00,VWS V15.00,2014-09-21 08:53:00,
2014-09-21 05:00:00,57.9,56.8,29.99,East,101,0.0,0.0,96,0.00,,---,0.00,VWS V15.00,2014-09-21 09:00:00,
2014-09-21 05:08:00,57.5,55.8,29.98,East,101,0.0,0.0,94,0.00,,---,0.00,VWS V15.00,2014-09-21 09:08:00,
2014-09-21 05:23:00,57.7,56.3,29.98,East,101,0.0,0.0,95,0.00,,---,0.00,VWS V15.00,2014-09-21 09:23:00,
2014-09-21 05:30:00,57.9,56.5,29.98,East,101,0.0,0.0,95,0.00,,---,0.00,VWS V15.00,2014-09-21 09:30:00,
2014-09-21 05:38:00,58.6,57.5,29.97,SE,129,0.0,0.0,96,0.00,,---,0.00,VWS V15.00,2014-09-21 09:38:00,
2014-09-21 05:53:00,59.0,57.6,29.97,SE,144,0.0,0.0,95,0.00,,---,0.00,VWS V15.00,2014-09-21 09:53:00,
2014-09-21 06:00:00,58.7,57.0,29.97,SE,144,0.0,0.0,94,0.00,,---,0.00,VWS V15.00,2014-09-21 10:00:00,
2014-09-21 06:08:00,58.7,57.0,29.97,South,176,0.0,0.0,94,0.00,,---,0.00,VWS V15.00,2014-09-21 10:08:00,
2014-09-21 06:23:00,58.3,56.6,29.98,South,190,0.0,0.0,94,0.00,,---,0.00,VWS V15.00,2014-09-21 10:23:00,
2014-09-21 06:30:00,58.3,56.6,29.97,South,190,0.0,0.0,94,0.00,,---,0.00,VWS V15.00,2014-09-21 10:30:00,
2014-09-21 06:38:00,58.7,57.3,29.97,South,190,0.0,0.0,95,0.00,,---,0.00,VWS V15.00,2014-09-21 10:38:00,
2014-09-21 06:53:00,58.8,57.4,29.98,WSW,246,0.0,0.0,95,0.00,,---,0.00,VWS V15.00,2014-09-21 10:53:00,
2014-09-21 07:00:00,58.9,57.5,29.97,WSW,246,0.0,0.0,95,0.00,,---,0.00,VWS V15.00,2014-09-21 11:00:00,
2014-09-21 07:08:00,58.9,57.5,29.97,WSW,246,0.0,0.0,95,0.00,,---,0.00,VWS V15.00,2014-09-21 11:08:00,
2014-09-21 07:23:00,59.1,57.7,29.97,South,190,0.0,0.0,95,0.00,,---,0.00,VWS V15.00,2014-09-21 11:23:00,
2014-09-21 07:30:00,59.1,57.7,29.97,South,187,0.0,0.0,95,0.00,,---,0.00,VWS V15.00,2014-09-21 11:30:00,
2014-09-21 07:38:00,59.4,58.0,29.97,South,187,0.0,0.0,95,0.00,,---,0.00,VWS V15.00,2014-09-21 11:38:00,
2014-09-21 07:53:00,59.8,58.4,29.97,South,187,0.0,0.0,95,0.00,,---,0.00,VWS V15.00,2014-09-21 11:53:00,
2014-09-21 08:00:00,60.0,58.6,29.97,South,187,0.0,0.0,95,0.00,,---,0.00,VWS V15.00,2014-09-21 12:00:00,
2014-09-21 08:08:00,60.2,58.8,29.96,South,186,0.0,0.0,95,0.00,,---,0.00,VWS V15.00,2014-09-21 12:08:00,
2014-09-21 08:23:00,60.2,58.8,29.96,South,186,0.0,0.0,95,0.00,,---,0.00,VWS V15.00,2014-09-21 12:23:00,
2014-09-21 08:30:00,60.2,58.8,29.96,South,186,0.0,0.0,95,0.00,,---,0.00,VWS V15.00,2014-09-21 12:30:00,
2014-09-21 08:38:00,60.3,58.9,29.96,South,186,0.0,0.0,95,0.00,,---,0.00,VWS V15.00,2014-09-21 12:38:00,
2014-09-21 08:53:00,60.4,59.0,29.96,South,186,0.0,0.0,95,0.00,,---,0.00,VWS V15.00,2014-09-21 12:53:00,
2014-09-21 09:00:00,60.4,59.0,29.96,South,186,0.0,0.0,95,0.00,,---,0.00,VWS V15.00,2014-09-21 13:00:00,
2014-09-21 09:08:00,60.6,59.5,29.95,South,186,0.0,0.0,96,0.00,,---,0.00,VWS V15.00,2014-09-21 13:08:00,
2014-09-21 09:23:00,61.0,59.9,29.95,South,186,0.0,0.0,96,0.00,,---,0.00,VWS V15.00,2014-09-21 13:23:00,
2014-09-21 09:30:00,61.1,60.0,29.95,South,186,0.0,0.0,96,0.00,,---,0.00,VWS V15.00,2014-09-21 13:30:00,
2014-09-21 09:38:00,61.3,60.2,29.95,South,186,0.0,0.0,96,0.00,,---,0.00,VWS V15.00,2014-09-21 13:38:00,
2014-09-21 09:53:00,61.3,60.2,29.94,South,186,0.0,0.0,96,0.00,,---,0.00,VWS V15.00,2014-09-21 13:53:00,
2014-09-21 10:00:00,61.5,60.3,29.94,SSW,209,0.0,0.0,96,0.00,,---,0.00,VWS V15.00,2014-09-21 14:00:00,
2014-09-21 10:08:00,61.7,60.5,29.93,SSW,209,0.0,0.0,96,0.00,,---,0.00,VWS V15.00,2014-09-21 14:08:00,
2014-09-21 10:23:00,62.0,60.8,29.93,SSE,148,0.0,0.0,96,0.00,,---,0.00,VWS V15.00,2014-09-21 14:23:00,
2014-09-21 10:30:00,61.8,60.7,29.93,SSE,148,0.0,0.0,96,0.00,,---,0.00,VWS V15.00,2014-09-21 14:30:00,
2014-09-21 10:38:00,62.0,60.8,29.92,SSE,148,0.0,0.0,96,0.00,,---,0.00,VWS V15.00,2014-09-21 14:38:00,
2014-09-21 10:53:00,62.2,61.0,29.92,SSE,148,0.0,0.0,96,0.00,,---,0.00,VWS V15.00,2014-09-21 14:53:00,
2014-09-21 11:00:00,62.2,61.0,29.92,SSE,148,0.0,0.0,96,0.00,,---,0.00,VWS V15.00,2014-09-21 15:00:00,
2014-09-21 11:08:00,62.3,61.2,29.92,SSE,148,0.0,0.0,96,0.00,,---,0.00,VWS V15.00,2014-09-21 15:08:00,